createdAt,value
2023-04-10T00:01:28.574Z,79.07
2023-04-10T00:04:31.649Z,79.02
2023-04-10T00:07:34.720Z,79.03
2023-04-10T00:10:37.723Z,79.07
2023-04-10T00:13:40.740Z,79.07
2023-04-10T00:16:43.738Z,79.11
2023-04-10T00:19:46.770Z,79.13
2023-04-10T00:22:50.104Z,79.21
2023-04-10T00:25:53.099Z,79.23
2023-04-10T00:28:56.299Z,79.24
2023-04-10T00:31:59.344Z,79.25
2023-04-10T00:35:03.001Z,79.30
2023-04-10T00:38:06.058Z,79.33
2023-04-10T00:41:09.010Z,79.38
2023-04-10T00:44:12.545Z,79.40
2023-04-10T00:47:16.256Z,79.41
2023-04-10T00:50:20.362Z,79.39
2023-04-10T00:53:23.590Z,79.38
2023-04-10T00:56:26.893Z,79.39
2023-04-10T00:59:29.986Z,79.44
2023-04-10T01:02:33.127Z,79.46
2023-04-10T01:05:45.391Z,79.51
2023-04-10T01:09:08.342Z,79.49
2023-04-10T01:12:11.453Z,79.49
2023-04-10T01:15:25.777Z,79.47
2023-04-10T01:18:38.915Z,79.46
2023-04-10T01:21:42.561Z,79.48
2023-04-10T01:25:12.902Z,79.50
2023-04-10T01:28:20.719Z,79.56
2023-04-10T01:31:34.820Z,79.59
2023-04-10T01:34:45.538Z,79.64
2023-04-10T01:37:52.437Z,79.65
2023-04-10T01:40:56.184Z,79.73
2023-04-10T01:44:04.882Z,79.82
2023-04-10T01:47:08.315Z,79.92
2023-04-10T01:50:12.172Z,80.02
2023-04-10T01:53:16.031Z,80.16
2023-04-10T01:56:19.438Z,80.23
2023-04-10T01:59:23.195Z,80.30
2023-04-10T02:02:34.084Z,80.37
2023-04-10T02:05:57.066Z,80.38
2023-04-10T02:09:11.131Z,80.43
2023-04-10T02:12:23.592Z,80.44
2023-04-10T02:15:32.311Z,80.44
2023-04-10T02:18:36.780Z,80.43
2023-04-10T02:21:42.195Z,80.44
2023-04-10T02:24:45.575Z,80.44
2023-04-10T02:27:48.534Z,80.44
2023-04-10T02:30:51.577Z,80.45
2023-04-10T02:33:54.910Z,80.51
2023-04-10T02:36:58.273Z,80.47
2023-04-10T02:40:02.218Z,80.46
2023-04-10T02:43:12.178Z,80.48
2023-04-10T02:46:16.254Z,80.48
2023-04-10T02:49:19.404Z,80.55
2023-04-10T02:52:22.509Z,80.58
2023-04-10T02:55:25.555Z,80.59
2023-04-10T02:58:30.520Z,80.59
2023-04-10T03:01:34.129Z,80.57
2023-04-10T03:04:37.485Z,80.60
2023-04-10T03:07:40.637Z,80.62
2023-04-10T03:10:46.393Z,80.60
2023-04-10T03:13:50.109Z,80.63
2023-04-10T03:16:53.147Z,80.65
2023-04-10T03:19:56.167Z,80.62
2023-04-10T03:23:00.682Z,80.64
2023-04-10T03:26:04.801Z,80.60
2023-04-10T03:29:12.254Z,80.57
2023-04-10T03:32:17.070Z,80.59
2023-04-10T03:35:20.287Z,80.60
2023-04-10T03:38:23.562Z,80.60
2023-04-10T03:41:27.233Z,80.64
2023-04-10T03:44:30.741Z,80.68
2023-04-10T03:47:34.545Z,80.68
2023-04-10T03:50:39.353Z,80.73
2023-04-10T03:53:42.455Z,80.74
2023-04-10T03:56:49.178Z,80.82
2023-04-10T03:59:52.324Z,80.87
2023-04-10T04:02:55.882Z,80.87
2023-04-10T04:06:21.008Z,80.88
2023-04-10T04:09:43.046Z,80.88
2023-04-10T04:13:01.707Z,80.89
2023-04-10T04:16:25.472Z,80.87
2023-04-10T04:19:42.014Z,80.89
2023-04-10T04:22:59.225Z,80.87
2023-04-10T04:26:11.143Z,80.86
2023-04-10T04:29:17.028Z,80.90
2023-04-10T04:32:39.583Z,80.92
2023-04-10T04:36:18.486Z,80.90
2023-04-10T04:39:49.214Z,80.86
2023-04-10T04:43:01.068Z,80.85
2023-04-10T04:46:30.343Z,80.84
2023-04-10T04:49:48.777Z,80.85
2023-04-10T04:53:19.461Z,80.89
2023-04-10T04:56:34.920Z,80.90
2023-04-10T04:59:46.904Z,80.91
2023-04-10T05:02:55.119Z,80.93
2023-04-10T05:06:18.689Z,80.95
2023-04-10T05:09:47.389Z,80.99
2023-04-10T05:13:13.517Z,81.00
2023-04-10T05:16:23.850Z,81.02
2023-04-10T05:19:34.248Z,81.01
2023-04-10T05:22:55.803Z,81.02
2023-04-10T05:26:19.139Z,81.09
2023-04-10T05:29:40.604Z,81.12
2023-04-10T05:33:09.820Z,81.17
2023-04-10T05:36:39.095Z,81.20
2023-04-10T05:39:51.822Z,81.21
2023-04-10T05:43:03.680Z,81.19
2023-04-10T05:46:32.381Z,81.20
2023-04-10T05:49:54.079Z,81.28
2023-04-10T05:53:06.802Z,81.30
2023-04-10T05:56:28.234Z,81.34
2023-04-10T06:00:01.416Z,81.32
2023-04-10T06:03:39.491Z,81.33
2023-04-10T06:06:42.959Z,81.30
2023-04-10T06:09:46.600Z,81.33
2023-04-10T06:12:49.655Z,81.35
2023-04-10T06:15:53.627Z,81.35
2023-04-10T06:18:57.321Z,81.41
2023-04-10T06:22:00.635Z,81.44
2023-04-10T06:25:05.362Z,81.44
2023-04-10T06:28:08.556Z,81.51
2023-04-10T06:31:12.763Z,81.57
2023-04-10T06:34:15.864Z,81.61
2023-04-10T06:37:32.823Z,81.63
2023-04-10T06:40:37.126Z,81.62
2023-04-10T06:43:40.377Z,81.64
2023-04-10T06:46:43.435Z,81.68
2023-04-10T06:49:46.494Z,81.73
2023-04-10T06:52:49.594Z,81.63
2023-04-10T06:55:52.790Z,81.61
2023-04-10T06:58:56.443Z,81.57
2023-04-10T07:01:59.532Z,81.61
2023-04-10T07:05:02.572Z,81.62
2023-04-10T07:08:05.628Z,81.64
2023-04-10T07:11:08.663Z,81.70
2023-04-10T07:14:11.926Z,81.70
2023-04-10T07:17:15.417Z,81.74
2023-04-10T07:20:18.564Z,81.77
2023-04-10T07:23:22.681Z,81.77
2023-04-10T07:26:26.089Z,81.80
2023-04-10T07:29:29.448Z,81.84
2023-04-10T07:32:34.998Z,81.88
2023-04-10T07:35:38.157Z,81.91
2023-04-10T07:38:42.255Z,81.92
2023-04-10T07:41:45.382Z,81.89
2023-04-10T07:44:48.423Z,81.92
2023-04-10T07:47:51.648Z,81.99
2023-04-10T07:50:54.688Z,81.97
2023-04-10T07:53:57.721Z,82.03
2023-04-10T07:57:00.748Z,82.05
2023-04-10T08:00:03.997Z,82.14
2023-04-10T08:03:15.978Z,82.25
2023-04-10T08:06:19.189Z,82.28
2023-04-10T08:09:22.225Z,82.40
2023-04-10T08:12:25.287Z,82.46
2023-04-10T08:15:28.260Z,83.00
2023-04-10T08:18:31.283Z,83.22
2023-04-10T08:21:34.447Z,83.16
2023-04-10T08:24:37.506Z,83.07
2023-04-10T08:27:40.522Z,83.01
2023-04-10T08:30:43.595Z,82.87
2023-04-10T08:33:46.937Z,82.81
2023-04-10T08:36:49.959Z,82.81
2023-04-10T08:39:53.395Z,82.69
2023-04-10T08:42:56.516Z,82.72
2023-04-10T08:45:59.718Z,82.64
2023-04-10T08:49:04.814Z,82.62
2023-04-10T08:52:11.929Z,82.58
2023-04-10T08:55:15.732Z,82.52
2023-04-10T08:58:18.980Z,82.61
2023-04-10T09:01:22.832Z,82.65
2023-04-10T09:04:26.675Z,82.64
2023-04-10T09:07:29.789Z,82.64
2023-04-10T09:10:32.886Z,82.63
2023-04-10T09:13:45.106Z,82.58
2023-04-10T09:16:48.650Z,82.68
2023-04-10T09:19:56.259Z,82.61
2023-04-10T09:22:59.423Z,82.51
2023-04-10T09:26:21.778Z,82.39
2023-04-10T09:29:26.640Z,82.12
2023-04-10T09:32:49.944Z,82.00
2023-04-10T09:35:57.366Z,81.80
2023-04-10T09:39:00.701Z,81.63
2023-04-10T09:42:04.323Z,81.51
2023-04-10T09:45:07.492Z,81.29
2023-04-10T09:48:10.524Z,81.19
2023-04-10T09:51:34.753Z,81.13
2023-04-10T09:54:38.327Z,81.06
2023-04-10T09:57:41.693Z,81.05
2023-04-10T10:00:48.832Z,80.90
2023-04-10T10:03:58.726Z,80.73
2023-04-10T10:07:02.379Z,80.79
2023-04-10T10:10:14.191Z,80.84
2023-04-10T10:13:25.315Z,80.78
2023-04-10T10:16:50.224Z,80.81
2023-04-10T10:20:07.675Z,80.62
2023-04-10T10:23:16.640Z,80.59
2023-04-10T10:26:19.951Z,80.58
2023-04-10T10:29:26.695Z,80.63
2023-04-10T10:32:30.655Z,80.69
2023-04-10T10:35:37.219Z,80.70
2023-04-10T10:38:48.121Z,80.68
2023-04-10T10:42:20.119Z,80.68
2023-04-10T10:45:34.560Z,80.53
2023-04-10T10:48:37.543Z,80.45
2023-04-10T10:51:51.082Z,80.34
2023-04-10T10:54:59.398Z,80.23
2023-04-10T10:58:05.420Z,80.16
2023-04-10T11:01:10.249Z,80.20
2023-04-10T11:04:52.575Z,80.16
2023-04-10T11:07:58.623Z,80.14
2023-04-10T11:11:07.305Z,80.12
2023-04-10T11:14:10.383Z,79.96
2023-04-10T11:17:34.996Z,79.80
2023-04-10T11:21:11.346Z,79.65
2023-04-10T11:24:14.360Z,79.66
2023-04-10T11:27:39.733Z,79.66
2023-04-10T11:30:42.857Z,79.58
2023-04-10T11:33:47.800Z,79.59
2023-04-10T11:36:51.099Z,79.44
2023-04-10T11:40:04.844Z,79.37
2023-04-10T11:43:16.902Z,79.48
2023-04-10T11:46:20.762Z,79.79
2023-04-10T11:49:30.200Z,79.72
2023-04-10T11:52:33.265Z,79.58
2023-04-10T11:55:41.798Z,78.78
2023-04-10T11:58:49.651Z,78.32
2023-04-10T12:02:04.631Z,77.66
2023-04-10T12:05:08.251Z,76.98
2023-04-10T12:08:11.468Z,76.42
2023-04-10T12:11:17.846Z,75.52
2023-04-10T12:14:22.222Z,75.48
2023-04-10T12:17:25.823Z,74.57
2023-04-10T12:20:29.943Z,74.07
2023-04-10T12:23:33.402Z,73.88
2023-04-10T12:26:36.951Z,73.19
2023-04-10T12:29:39.953Z,72.57
2023-04-10T12:32:52.455Z,72.29
2023-04-10T12:35:56.197Z,72.19
2023-04-10T12:39:01.861Z,72.05
2023-04-10T12:42:22.838Z,72.18
2023-04-10T12:45:45.718Z,71.75
2023-04-10T12:48:48.882Z,71.09
2023-04-10T12:51:52.954Z,71.46
2023-04-10T12:55:17.942Z,70.56
2023-04-10T12:58:21.346Z,70.14
2023-04-10T13:01:24.372Z,69.81
2023-04-10T13:04:30.068Z,69.39
2023-04-10T13:07:33.762Z,69.34
2023-04-10T13:10:38.370Z,69.01
2023-04-10T13:13:41.530Z,68.73
2023-04-10T13:16:44.600Z,68.47
2023-04-10T13:19:47.687Z,68.05
2023-04-10T13:22:50.827Z,67.85
2023-04-10T13:25:53.862Z,67.63
2023-04-10T13:28:57.231Z,67.21
2023-04-10T13:32:01.341Z,67.02
2023-04-10T13:35:04.618Z,66.99
2023-04-10T13:38:09.433Z,66.64
2023-04-10T13:41:12.558Z,66.59
2023-04-10T13:44:15.643Z,67.02
2023-04-10T13:47:18.689Z,66.97
2023-04-10T13:50:21.914Z,66.74
2023-04-10T13:53:25.009Z,66.61
2023-04-10T13:56:27.928Z,66.31
2023-04-10T13:59:30.946Z,66.97
2023-04-10T14:02:34.132Z,66.18
2023-04-10T14:05:37.246Z,65.59
2023-04-10T14:08:40.401Z,65.77
2023-04-10T14:11:43.396Z,65.59
2023-04-10T14:14:46.478Z,65.99
2023-04-10T14:17:49.589Z,66.05
2023-04-10T14:20:53.072Z,66.32
2023-04-10T14:23:57.970Z,66.22
2023-04-10T14:27:01.951Z,66.29
2023-04-10T14:30:05.796Z,66.30
2023-04-10T14:33:08.832Z,66.28
2023-04-10T14:36:11.902Z,66.11
2023-04-10T14:39:14.895Z,66.20
2023-04-10T14:42:17.889Z,66.31
2023-04-10T14:45:20.850Z,66.61
2023-04-10T14:48:24.037Z,66.56
2023-04-10T14:51:27.826Z,66.80
2023-04-10T14:54:30.900Z,66.93
2023-04-10T14:57:33.880Z,66.75
2023-04-10T15:00:37.283Z,66.70
2023-04-10T15:03:40.552Z,67.07
2023-04-10T15:06:43.715Z,67.21
2023-04-10T15:09:46.694Z,67.16
2023-04-10T15:12:49.772Z,67.28
2023-04-10T15:15:52.885Z,67.39
2023-04-10T15:18:56.318Z,67.34
2023-04-10T15:21:59.917Z,67.16
2023-04-10T15:25:03.645Z,66.98
2023-04-10T15:28:08.306Z,67.15
2023-04-10T15:31:11.686Z,67.33
2023-04-10T15:34:14.697Z,67.30
2023-04-10T15:37:18.205Z,67.36
2023-04-10T15:40:21.200Z,67.52
2023-04-10T15:43:24.229Z,67.43
2023-04-10T15:46:27.481Z,67.57
2023-04-10T15:49:37.590Z,67.66
2023-04-10T15:52:41.176Z,67.59
2023-04-10T15:55:44.483Z,67.72
2023-04-10T15:58:47.517Z,67.61
2023-04-10T16:01:50.646Z,67.65
2023-04-10T16:04:54.130Z,67.57
2023-04-10T16:07:57.189Z,67.74
2023-04-10T16:11:00.324Z,68.52
2023-04-10T16:14:03.358Z,69.19
2023-04-10T16:17:06.713Z,69.87
2023-04-10T16:20:09.998Z,70.51
2023-04-10T16:23:13.545Z,70.88
2023-04-10T16:26:18.564Z,71.17
2023-04-10T16:29:22.116Z,71.72
2023-04-10T16:32:25.365Z,72.40
2023-04-10T16:35:28.842Z,72.95
2023-04-10T16:38:34.549Z,73.41
2023-04-10T16:41:37.899Z,73.69
2023-04-10T16:44:41.215Z,72.75
2023-04-10T16:47:46.128Z,72.26
2023-04-10T16:50:49.764Z,71.63
2023-04-10T16:53:53.623Z,71.57
2023-04-10T16:56:57.088Z,71.18
2023-04-10T17:00:00.184Z,71.00
2023-04-10T17:03:04.145Z,70.92
2023-04-10T17:06:08.345Z,71.07
2023-04-10T17:09:11.644Z,71.06
2023-04-10T17:12:15.060Z,71.38
2023-04-10T17:15:30.510Z,71.47
2023-04-10T17:18:34.461Z,71.87
2023-04-10T17:21:38.360Z,72.53
2023-04-10T17:24:46.192Z,72.76
2023-04-10T17:27:49.204Z,72.78
2023-04-10T17:30:52.251Z,72.89
2023-04-10T17:33:55.344Z,73.01
2023-04-10T17:36:59.459Z,73.14
2023-04-10T17:40:03.064Z,73.35
2023-04-10T17:43:06.651Z,73.54
2023-04-10T17:46:16.112Z,73.69
2023-04-10T17:49:20.825Z,73.82
2023-04-10T17:52:25.812Z,73.88
2023-04-10T17:55:29.098Z,74.04
2023-04-10T17:58:32.201Z,74.16
2023-04-10T18:01:35.426Z,74.29
2023-04-10T18:04:38.753Z,74.44
2023-04-10T18:07:41.936Z,74.45
2023-04-10T18:10:44.925Z,74.49
2023-04-10T18:13:51.025Z,74.47
2023-04-10T18:16:54.333Z,74.56
2023-04-10T18:19:57.616Z,74.63
2023-04-10T18:23:01.179Z,74.57
2023-04-10T18:26:06.476Z,74.58
2023-04-10T18:29:09.522Z,74.56
2023-04-10T18:32:12.864Z,74.61
2023-04-10T18:35:16.016Z,74.60
2023-04-10T18:38:19.086Z,74.49
2023-04-10T18:41:22.163Z,74.43
2023-04-10T18:44:25.227Z,74.40
2023-04-10T18:47:28.185Z,74.39
2023-04-10T18:50:34.342Z,74.35
2023-04-10T18:53:37.679Z,74.25
2023-04-10T18:56:40.955Z,74.13
2023-04-10T18:59:44.042Z,74.04
2023-04-10T19:02:47.112Z,73.90
2023-04-10T19:05:50.370Z,73.76
2023-04-10T19:08:55.586Z,73.55
2023-04-10T19:11:59.507Z,73.52
2023-04-10T19:15:03.954Z,73.56
2023-04-10T19:18:07.255Z,73.60
2023-04-10T19:21:10.392Z,73.60
2023-04-10T19:24:13.752Z,73.85
2023-04-10T19:27:16.738Z,73.61
2023-04-10T19:30:19.826Z,73.49
2023-04-10T19:33:23.086Z,73.41
2023-04-10T19:36:27.232Z,73.34
2023-04-10T19:39:30.336Z,73.34
2023-04-10T19:42:36.655Z,73.57
2023-04-10T19:45:39.976Z,73.85
2023-04-10T19:48:42.938Z,74.02
2023-04-10T19:51:45.951Z,74.23
2023-04-10T19:54:49.045Z,74.33
2023-04-10T19:57:52.134Z,74.43
2023-04-10T20:00:56.057Z,74.47
2023-04-10T20:03:59.193Z,74.55
2023-04-10T20:07:02.189Z,74.63
2023-04-10T20:10:05.835Z,74.67
2023-04-10T20:13:09.006Z,74.73
2023-04-10T20:16:12.269Z,74.74
2023-04-10T20:19:15.446Z,74.74
2023-04-10T20:22:18.425Z,74.72
2023-04-10T20:25:21.494Z,74.73
2023-04-10T20:28:24.683Z,74.72
2023-04-10T20:31:27.758Z,74.81
2023-04-10T20:34:30.967Z,74.92
2023-04-10T20:37:34.033Z,74.97
2023-04-10T20:40:37.110Z,75.03
2023-04-10T20:43:40.381Z,75.07
2023-04-10T20:46:43.524Z,75.08
2023-04-10T20:49:46.570Z,75.09
2023-04-10T20:52:49.709Z,75.08
2023-04-10T20:55:55.978Z,75.10
2023-04-10T20:58:59.413Z,75.03
2023-04-10T21:02:02.538Z,74.99
2023-04-10T21:05:06.026Z,74.87
2023-04-10T21:08:12.492Z,74.79
2023-04-10T21:11:15.529Z,74.69
2023-04-10T21:14:18.549Z,74.64
2023-04-10T21:17:22.205Z,74.55
2023-04-10T21:23:01.883Z,74.19
2023-04-10T21:26:05.055Z,73.89
2023-04-10T21:29:08.026Z,73.75
2023-04-10T21:32:11.143Z,73.67
2023-04-10T21:35:14.230Z,73.53
2023-04-10T21:38:17.264Z,73.42
2023-04-10T21:41:20.880Z,73.47
2023-04-10T21:44:24.040Z,73.40
2023-04-10T21:47:27.115Z,73.39
2023-04-10T21:50:30.263Z,73.50
2023-04-10T21:53:33.299Z,73.55
2023-04-10T21:56:38.748Z,73.44
2023-04-10T21:59:41.778Z,73.45
2023-04-10T22:02:45.101Z,73.34
2023-04-10T22:05:50.176Z,73.15
2023-04-10T22:08:53.614Z,72.94
2023-04-10T22:11:56.804Z,72.83
2023-04-10T22:15:00.289Z,72.77
2023-04-10T22:18:03.514Z,72.66
2023-04-10T22:21:06.975Z,72.64
2023-04-10T22:24:09.978Z,72.77
2023-04-10T22:27:12.942Z,72.61
2023-04-10T22:30:16.084Z,72.37
2023-04-10T22:33:19.078Z,72.23
2023-04-10T22:36:22.134Z,72.12
2023-04-10T22:39:25.180Z,72.11
2023-04-10T22:42:30.525Z,72.07
2023-04-10T22:45:34.653Z,72.08
2023-04-10T22:48:37.803Z,72.09
2023-04-10T22:51:42.025Z,72.00
2023-04-10T22:54:45.035Z,71.91
2023-04-10T22:57:49.434Z,71.90
2023-04-10T23:00:52.451Z,71.84
2023-04-10T23:03:55.489Z,71.86
2023-04-10T23:06:58.772Z,71.82
2023-04-10T23:10:01.812Z,71.85
2023-04-10T23:13:04.847Z,71.92
2023-04-10T23:16:08.347Z,71.95
2023-04-10T23:19:11.419Z,71.94
2023-04-10T23:22:14.380Z,72.00
2023-04-10T23:25:17.374Z,72.08
2023-04-10T23:28:21.481Z,72.18
2023-04-10T23:31:25.339Z,72.23
2023-04-10T23:34:28.452Z,72.49
2023-04-10T23:37:33.817Z,72.51
2023-04-10T23:40:36.822Z,72.61
2023-04-10T23:43:39.757Z,72.54
2023-04-10T23:46:42.851Z,72.45
2023-04-10T23:49:45.884Z,72.24
2023-04-10T23:52:50.402Z,72.14
2023-04-10T23:55:53.329Z,72.06
2023-04-10T23:58:56.782Z,71.92
